Time;durP1;ratioP1;P1;durP2;ratioP2;P2;SDS_P1;SDS_P2;PMS_P1;PMS_P2;Temp;Humidity;BMP_temperature;BMP_pressure;BME280_temperature;BME280_humidity;BME280_pressure;Samples;Min_cycle;Max_cycle;Signal;HPM_P1;HPM_P2
2024/01/07 05:00:12;;;;;;;0.50;0.50;;;-1.00;99.90;;;;;;5954941;23;20197;31
2024/01/07 05:02:39;;;;;;;0.88;0.88;;;-1.00;99.90;;;;;;4869045;29;20231;-69
2024/01/07 05:05:06;;;;;;;0.60;0.60;;;-0.90;99.90;;;;;;4877793;29;20212;-69
2024/01/07 05:07:33;;;;;;;0.70;0.70;;;-0.90;99.90;;;;;;4878579;29;20279;-69
2024/01/07 05:10:00;;;;;;;1.33;1.33;;;-0.90;99.90;;;;;;4870619;29;20226;-69
2024/01/07 05:12:26;;;;;;;0.60;0.60;;;-0.90;99.90;;;;;;4864035;29;20232;-69
2024/01/07 05:14:53;;;;;;;0.40;0.40;;;-0.90;99.90;;;;;;4876594;29;20212;-69
2024/01/07 05:17:21;;;;;;;0.68;0.68;;;-0.90;99.90;;;;;;4864527;29;20234;-69
2024/01/07 05:19:48;;;;;;;1.27;0.82;;;-0.90;99.90;;;;;;4876976;29;20638;-69
2024/01/07 05:22:15;;;;;;;1.00;1.00;;;-0.90;99.90;;;;;;4872465;29;20223;-69
2024/01/07 05:24:41;;;;;;;1.13;1.13;;;-0.90;99.90;;;;;;4876381;29;20682;-69
2024/01/07 05:27:09;;;;;;;1.63;0.98;;;-0.90;99.90;;;;;;4878213;29;20208;-69
2024/01/07 05:29:36;;;;;;;1.20;1.02;;;-0.90;99.90;;;;;;4871932;29;20209;-69
2024/01/07 05:32:03;;;;;;;1.08;1.08;;;-0.90;99.90;;;;;;4876281;29;20895;-69
2024/01/07 05:34:32;;;;;;;0.77;0.77;;;-0.90;99.90;;;;;;4881914;29;20267;-69
2024/01/07 05:36:59;;;;;;;1.10;1.10;;;-0.80;99.90;;;;;;4884301;29;20212;-69
2024/01/07 05:39:26;;;;;;;0.50;0.50;;;-0.80;99.90;;;;;;4874255;29;20647;-69
2024/01/07 05:41:52;;;;;;;0.60;0.60;;;-0.80;99.90;;;;;;4880752;29;20235;-69
2024/01/07 05:44:19;;;;;;;0.40;0.40;;;-0.80;99.90;;;;;;4892048;29;20212;-69
2024/01/07 05:46:46;;;;;;;1.13;0.98;;;-0.80;99.90;;;;;;4893427;29;20227;-69
2024/01/07 05:49:12;;;;;;;2.50;0.60;;;-0.80;99.90;;;;;;4877838;29;20232;-69
2024/01/07 05:51:41;;;;;;;0.43;0.43;;;-0.80;99.90;;;;;;4876577;29;20230;-69
2024/01/07 05:54:08;;;;;;;1.85;0.52;;;-0.80;99.90;;;;;;4878204;29;20242;-69
2024/01/07 05:56:39;;;;;;;0.40;0.40;;;-0.70;99.90;;;;;;4890905;29;20462;-69
2024/01/07 05:59:06;;;;;;;1.70;1.55;;;-0.70;99.90;;;;;;4867848;29;20235;-69
2024/01/07 06:01:33;;;;;;;0.77;0.77;;;-0.70;99.90;;;;;;4875235;29;20242;-69
2024/01/07 06:04:00;;;;;;;2.45;0.90;;;-0.70;99.90;;;;;;4891437;29;20625;-69
2024/01/07 06:06:26;;;;;;;0.55;0.55;;;-0.60;99.90;;;;;;4886149;29;20204;-69
2024/01/07 06:08:54;;;;;;;0.65;0.50;;;-0.60;99.90;;;;;;4890077;29;20239;-69
2024/01/07 06:11:21;;;;;;;0.80;0.80;;;-0.60;99.90;;;;;;4882573;29;20250;-69
2024/01/07 06:13:48;;;;;;;1.05;1.05;;;-0.60;99.90;;;;;;4885705;29;20218;-69
2024/01/07 06:16:15;;;;;;;1.30;1.17;;;-0.60;99.90;;;;;;4878740;29;20215;-69
2024/01/07 06:18:41;;;;;;;0.65;0.65;;;-0.60;99.90;;;;;;4888607;29;20207;-69
2024/01/07 06:21:08;;;;;;;1.10;1.10;;;-0.50;99.90;;;;;;4874581;29;20228;-69
2024/01/07 06:23:35;;;;;;;1.75;1.02;;;-0.50;99.90;;;;;;4875710;29;20564;-69
2024/01/07 06:26:06;;;;;;;0.68;0.68;;;-0.50;99.90;;;;;;4884338;29;20760;-69
2024/01/07 06:28:33;;;;;;;0.60;0.60;;;-0.50;99.90;;;;;;4880466;29;20255;-69
2024/01/07 06:30:59;;;;;;;0.85;0.75;;;-0.50;99.90;;;;;;4876003;29;20240;-69
2024/01/07 06:33:26;;;;;;;0.50;0.50;;;-0.50;99.90;;;;;;4869544;29;20205;-69
2024/01/07 06:35:53;;;;;;;1.40;1.40;;;-0.40;99.90;;;;;;4877378;29;20212;-69
2024/01/07 06:38:19;;;;;;;0.60;0.60;;;-0.40;99.90;;;;;;4878982;29;20681;-69
2024/01/07 06:40:46;;;;;;;0.68;0.68;;;-0.40;99.90;;;;;;4871998;29;20232;-69
2024/01/07 06:43:14;;;;;;;0.70;0.70;;;-0.40;99.90;;;;;;4882310;29;20215;-69
2024/01/07 06:45:41;;;;;;;0.95;0.95;;;-0.40;99.90;;;;;;4882655;29;20228;-69
2024/01/07 06:48:08;;;;;;;2.90;1.23;;;-0.40;99.90;;;;;;4872072;29;20235;-69
2024/01/07 06:50:35;;;;;;;0.63;0.63;;;-0.40;99.90;;;;;;4884515;29;20236;-69
2024/01/07 06:53:02;;;;;;;0.75;0.75;;;-0.30;99.90;;;;;;4889197;29;20229;-69
2024/01/07 06:55:28;;;;;;;0.75;0.75;;;-0.30;99.90;;;;;;4884311;29;20212;-69
2024/01/07 06:57:55;;;;;;;0.65;0.65;;;-0.30;99.90;;;;;;4875345;29;20219;-69
2024/01/07 07:00:24;;;;;;;0.50;0.50;;;-0.30;99.90;;;;;;4885457;29;20208;-69
2024/01/07 07:02:51;;;;;;;0.70;0.70;;;-0.30;99.90;;;;;;4862022;29;20238;-69
2024/01/07 07:05:17;;;;;;;0.93;0.93;;;-0.30;99.90;;;;;;4874530;29;20215;-69
2024/01/07 07:07:45;;;;;;;0.47;0.47;;;-0.30;99.90;;;;;;4866410;29;20213;-69
2024/01/07 07:10:12;;;;;;;1.33;1.20;;;-0.20;99.90;;;;;;4875334;29;20296;-69
2024/01/07 07:12:38;;;;;;;0.30;0.30;;;-0.20;99.90;;;;;;4883238;29;20207;-70
2024/01/07 07:15:06;;;;;;;1.48;1.35;;;-0.20;99.90;;;;;;4884269;29;20208;-70
2024/01/07 07:17:34;;;;;;;1.83;0.70;;;-0.20;99.90;;;;;;4884126;29;20204;-71
2024/01/07 07:20:00;;;;;;;0.28;0.28;;;-0.20;99.90;;;;;;4890405;29;20219;-70
2024/01/07 07:22:27;;;;;;;1.75;1.13;;;-0.20;99.90;;;;;;4880820;29;20267;-70
2024/01/07 07:24:54;;;;;;;1.77;1.33;;;-0.20;99.90;;;;;;4888142;29;20220;-69
2024/01/07 07:27:20;;;;;;;3.40;0.85;;;-0.20;99.90;;;;;;4871793;29;20207;-70
2024/01/07 07:29:47;;;;;;;0.85;0.85;;;-0.20;99.90;;;;;;4881076;29;20233;-69
2024/01/07 07:32:14;;;;;;;0.80;0.80;;;-0.20;99.90;;;;;;4883326;29;20234;-70
2024/01/07 07:34:42;;;;;;;1.80;1.70;;;-0.10;99.90;;;;;;4877513;29;20204;-69
2024/01/07 07:37:09;;;;;;;2.15;1.38;;;-0.10;99.90;;;;;;4864997;29;20338;-70
2024/01/07 07:39:36;;;;;;;1.60;1.30;;;-0.20;99.90;;;;;;4884591;29;20691;-70
2024/01/07 07:42:03;;;;;;;0.90;0.90;;;-0.20;99.90;;;;;;4881478;29;20239;-70
2024/01/07 07:44:30;;;;;;;1.15;0.95;;;-0.10;99.90;;;;;;4886495;29;20211;-69
2024/01/07 07:46:57;;;;;;;1.05;1.05;;;-0.10;99.90;;;;;;4874831;29;20223;-70
2024/01/07 07:49:23;;;;;;;0.88;0.88;;;-0.10;99.90;;;;;;4878885;29;20626;-70
2024/01/07 07:51:52;;;;;;;0.65;0.65;;;-0.10;99.90;;;;;;4882969;29;20231;-69
2024/01/07 07:54:18;;;;;;;0.55;0.55;;;-0.10;99.90;;;;;;4883235;29;20236;-69
2024/01/07 07:56:45;;;;;;;1.05;1.05;;;-0.10;99.90;;;;;;4874940;29;20219;-70
2024/01/07 07:59:12;;;;;;;2.75;1.20;;;0.00;99.90;;;;;;4878350;29;20584;-70
2024/01/07 08:01:39;;;;;;;1.13;1.13;;;0.00;99.90;;;;;;4873765;29;20243;-70
2024/01/07 08:04:06;;;;;;;1.30;1.10;;;0.00;99.90;;;;;;4871296;29;20642;-69
2024/01/07 08:06:33;;;;;;;7.15;1.52;;;0.00;99.90;;;;;;4872881;29;20671;-70
2024/01/07 08:09:01;;;;;;;1.50;1.40;;;0.00;99.90;;;;;;4877835;29;20258;-70
2024/01/07 08:11:29;;;;;;;2.67;1.00;;;0.00;99.90;;;;;;4874527;29;20239;-70
2024/01/07 08:13:57;;;;;;;0.70;0.70;;;0.00;99.90;;;;;;4880921;29;20208;-70
2024/01/07 08:16:24;;;;;;;1.35;1.35;;;0.00;99.90;;;;;;4878735;29;20223;-70
2024/01/07 08:18:50;;;;;;;1.67;0.80;;;0.00;99.90;;;;;;4882717;29;20215;-70
2024/01/07 08:21:17;;;;;;;9.93;2.08;;;0.00;99.90;;;;;;4879687;29;20268;-70
2024/01/07 08:23:44;;;;;;;2.15;1.50;;;0.00;99.90;;;;;;4876032;29;20209;-69
2024/01/07 08:26:12;;;;;;;1.58;1.08;;;0.00;99.90;;;;;;4866457;29;20695;-70
2024/01/07 08:28:39;;;;;;;1.70;1.60;;;0.00;99.90;;;;;;4879517;29;20316;-70
2024/01/07 08:31:07;;;;;;;3.60;2.83;;;0.00;99.90;;;;;;4871705;29;20707;-70
2024/01/07 08:33:33;;;;;;;3.33;3.08;;;0.00;99.90;;;;;;4878950;29;20667;-70
2024/01/07 08:36:00;;;;;;;9.68;5.10;;;0.00;99.90;;;;;;4874539;29;20256;-69
2024/01/07 08:38:27;;;;;;;6.57;3.65;;;0.10;99.90;;;;;;4874825;29;20219;-69
2024/01/07 08:40:53;;;;;;;2.72;2.55;;;0.00;99.90;;;;;;4869389;29;20596;-69
2024/01/07 08:43:21;;;;;;;8.25;3.95;;;0.00;99.90;;;;;;4876356;29;20207;-69
2024/01/07 08:45:48;;;;;;;1.25;1.15;;;0.00;99.90;;;;;;4874477;29;20209;-69
2024/01/07 08:48:15;;;;;;;0.80;0.80;;;0.00;99.90;;;;;;4872137;29;20630;-70
2024/01/07 08:50:41;;;;;;;0.82;0.75;;;0.00;99.90;;;;;;4871620;29;20247;-70
2024/01/07 08:53:08;;;;;;;2.25;1.45;;;0.00;99.90;;;;;;4867748;29;20575;-69
2024/01/07 08:55:35;;;;;;;0.75;0.75;;;0.00;99.90;;;;;;4872003;29;20212;-69
2024/01/07 08:58:01;;;;;;;1.10;1.10;;;0.00;99.90;;;;;;4876560;29;20260;-69
2024/01/07 09:00:31;;;;;;;0.57;0.57;;;-0.10;99.90;;;;;;4868233;29;20223;-69
2024/01/07 09:02:58;;;;;;;3.63;1.52;;;0.00;99.90;;;;;;4878148;29;20643;-70
2024/01/07 09:05:25;;;;;;;1.50;1.50;;;0.00;99.90;;;;;;4880485;29;20235;-70
2024/01/07 09:07:51;;;;;;;0.30;0.30;;;0.00;99.90;;;;;;4871025;29;20239;-68
2024/01/07 09:10:18;;;;;;;1.92;1.83;;;-0.10;99.90;;;;;;4876907;29;20250;-70
2024/01/07 09:12:46;;;;;;;1.25;1.15;;;-0.10;99.90;;;;;;4879667;29;20214;-70
2024/01/07 09:15:12;;;;;;;1.17;1.17;;;-0.10;99.90;;;;;;4878750;29;20620;-70
2024/01/07 09:17:40;;;;;;;1.48;0.90;;;-0.10;99.90;;;;;;4877094;29;20233;-69
2024/01/07 09:20:09;;;;;;;1.92;1.77;;;-0.20;99.90;;;;;;4880492;29;20208;-69
2024/01/07 09:22:35;;;;;;;0.30;0.30;;;-0.20;99.90;;;;;;4880965;29;20230;-69
2024/01/07 09:25:04;;;;;;;2.38;0.93;;;-0.20;99.90;;;;;;4880426;29;20244;-69
2024/01/07 09:27:31;;;;;;;4.88;1.20;;;-0.20;99.90;;;;;;4871689;29;20603;-69
2024/01/07 09:29:57;;;;;;;1.00;1.00;;;-0.30;99.90;;;;;;4869414;29;20227;-70
2024/01/07 09:32:24;;;;;;;1.00;0.98;;;-0.30;99.90;;;;;;4872641;29;20235;-69
2024/01/07 09:34:53;;;;;;;1.23;1.20;;;-0.30;99.90;;;;;;4878190;29;20215;-69
2024/01/07 09:37:20;;;;;;;2.35;1.15;;;-0.30;99.90;;;;;;4874900;29;20222;-68
2024/01/07 09:39:47;;;;;;;0.90;0.90;;;-0.30;99.90;;;;;;4867855;29;20575;-69
2024/01/07 09:42:14;;;;;;;0.85;0.85;;;-0.30;99.90;;;;;;4864407;29;20250;-69
2024/01/07 09:44:42;;;;;;;0.40;0.40;;;-0.30;99.90;;;;;;4867609;29;20255;-70
2024/01/07 09:47:12;;;;;;;0.45;0.45;;;-0.30;99.90;;;;;;4878133;29;20712;-70
2024/01/07 09:49:39;;;;;;;0.63;0.63;;;-0.30;99.90;;;;;;4884654;29;20732;-70
2024/01/07 09:52:08;;;;;;;1.55;1.45;;;-0.30;99.90;;;;;;4866987;29;20242;-70
2024/01/07 09:54:37;;;;;;;0.80;0.80;;;-0.30;99.90;;;;;;4872932;29;20212;-70
2024/01/07 09:57:06;;;;;;;1.83;1.73;;;-0.30;99.90;;;;;;4881730;29;20240;-70
2024/01/07 09:59:33;;;;;;;1.70;1.65;;;-0.30;99.90;;;;;;4879222;29;20208;-69
2024/01/07 10:02:00;;;;;;;1.40;1.30;;;-0.30;99.90;;;;;;4865912;29;20330;-69
2024/01/07 10:04:28;;;;;;;1.00;1.00;;;-0.30;99.90;;;;;;4872602;29;20234;-70
2024/01/07 10:06:55;;;;;;;0.75;0.75;;;-0.20;99.90;;;;;;4875151;29;21594;-70
2024/01/07 10:09:26;;;;;;;1.40;1.40;;;-0.20;99.90;;;;;;4875955;29;20231;-69
2024/01/07 10:11:53;;;;;;;1.50;1.40;;;-0.20;99.90;;;;;;4867530;29;20224;-70
2024/01/07 10:14:22;;;;;;;1.10;1.10;;;-0.10;99.90;;;;;;4877228;29;20203;-70
2024/01/07 10:16:49;;;;;;;2.75;0.73;;;-0.10;99.90;;;;;;4873332;29;20208;-69
2024/01/07 10:19:21;;;;;;;3.95;1.20;;;-0.10;99.90;;;;;;4877434;29;21837;-70
2024/01/07 10:22:00;;;;;;;10.32;1.60;;;-0.10;99.90;;;;;;4866928;29;20232;-70
2024/01/07 10:24:37;;;;;;;0.98;0.98;;;0.00;99.90;;;;;;4870316;29;20744;-69
2024/01/07 10:27:04;;;;;;;0.77;0.77;;;0.00;99.90;;;;;;4877825;29;20712;-70
2024/01/07 10:29:31;;;;;;;1.95;0.93;;;0.00;99.90;;;;;;4874387;29;20319;-70
2024/01/07 10:31:58;;;;;;;0.77;0.65;;;0.00;99.90;;;;;;4870238;29;20251;-70
2024/01/07 10:34:27;;;;;;;0.70;0.70;;;0.00;99.90;;;;;;4870431;29;20696;-70
2024/01/07 10:36:57;;;;;;;0.75;0.75;;;0.00;99.90;;;;;;4868102;29;20220;-70
2024/01/07 10:39:25;;;;;;;1.20;1.20;;;0.10;99.90;;;;;;4865638;29;20210;-69
2024/01/07 10:41:56;;;;;;;0.93;0.88;;;0.10;99.90;;;;;;4866869;29;20595;-70
2024/01/07 10:44:23;;;;;;;0.98;0.98;;;0.10;99.90;;;;;;4871284;29;20547;-69
2024/01/07 10:46:52;;;;;;;1.27;1.17;;;0.20;99.90;;;;;;4879282;29;20207;-70
2024/01/07 10:49:21;;;;;;;2.47;2.28;;;0.20;99.90;;;;;;4880530;29;20234;-70
2024/01/07 10:51:57;;;;;;;4.18;1.95;;;0.20;99.90;;;;;;4872089;29;20236;-70
2024/01/07 10:54:29;;;;;;;0.65;0.65;;;0.30;99.90;;;;;;4867900;29;20306;-70
2024/01/07 10:57:00;;;;;;;1.17;0.90;;;0.20;99.90;;;;;;4873780;29;20220;-68
2024/01/07 10:59:28;;;;;;;1.15;1.05;;;0.20;99.90;;;;;;4869681;29;20203;-70
2024/01/07 11:01:55;;;;;;;2.10;1.55;;;0.20;99.90;;;;;;4870985;29;20247;-69
2024/01/07 11:04:27;;;;;;;1.70;1.60;;;0.20;99.90;;;;;;4879355;29;20718;-70
2024/01/07 11:07:02;;;;;;;2.00;1.90;;;0.30;99.90;;;;;;4862934;29;20215;-70
2024/01/07 11:09:36;;;;;;;0.30;0.30;;;0.30;99.90;;;;;;4877158;29;20232;-70
2024/01/07 11:12:05;;;;;;;1.35;1.35;;;0.30;99.90;;;;;;4864961;29;20607;-70
2024/01/07 11:14:36;;;;;;;3.90;0.73;;;0.30;99.90;;;;;;4867473;29;20216;-69
2024/01/07 11:17:03;;;;;;;1.10;1.10;;;0.30;99.90;;;;;;4868523;29;20651;-70
2024/01/07 11:19:30;;;;;;;0.90;0.90;;;0.30;99.90;;;;;;4876169;29;20239;-70
2024/01/07 11:22:23;;;;;;;2.33;1.45;;;0.40;99.90;;;;;;4871066;29;20223;-70
2024/01/07 11:24:50;;;;;;;1.60;1.50;;;0.40;99.90;;;;;;4873079;29;20273;-70
2024/01/07 11:27:19;;;;;;;2.80;0.93;;;0.50;99.90;;;;;;4868797;29;20220;-69
2024/01/07 11:29:53;;;;;;;1.50;1.40;;;0.50;99.90;;;;;;4864976;29;20232;-68
2024/01/07 11:32:20;;;;;;;1.52;0.93;;;0.50;99.90;;;;;;4876395;29;20250;-70
2024/01/07 11:34:49;;;;;;;0.75;0.75;;;0.50;99.90;;;;;;4873785;29;20239;-69
2024/01/07 11:37:16;;;;;;;0.60;0.60;;;0.60;99.90;;;;;;4863827;29;20294;-69
2024/01/07 11:39:44;;;;;;;2.05;1.25;;;0.60;99.90;;;;;;4874300;29;20208;-70
2024/01/07 11:42:11;;;;;;;0.43;0.43;;;0.60;99.90;;;;;;4864969;29;20244;-70
2024/01/07 11:44:47;;;;;;;1.40;0.93;;;0.60;99.90;;;;;;4867554;29;20686;-69
2024/01/07 11:47:14;;;;;;;0.40;0.40;;;0.60;99.90;;;;;;4867463;29;20296;-67
2024/01/07 11:49:40;;;;;;;4.22;0.82;;;0.60;99.90;;;;;;4867911;29;20605;-69
2024/01/07 11:52:09;;;;;;;0.65;0.65;;;0.60;99.90;;;;;;4865887;29;20228;-68
2024/01/07 11:54:35;;;;;;;0.55;0.55;;;0.60;99.90;;;;;;4863914;29;20636;-68
2024/01/07 11:57:02;;;;;;;0.70;0.70;;;0.70;99.90;;;;;;4860928;29;20216;-68
2024/01/07 11:59:30;;;;;;;0.40;0.40;;;0.70;99.90;;;;;;4870193;29;20236;-69
2024/01/07 12:02:00;;;;;;;1.33;0.68;;;0.70;99.90;;;;;;4876261;29;20247;-69
2024/01/07 12:04:26;;;;;;;0.55;0.55;;;0.70;99.90;;;;;;4871464;29;20247;-68
2024/01/07 12:06:53;;;;;;;1.55;0.50;;;0.70;99.90;;;;;;4873806;29;20223;-69
2024/01/07 12:09:20;;;;;;;0.77;0.77;;;0.70;99.90;;;;;;4871563;29;20830;-69
2024/01/07 12:11:47;;;;;;;0.93;0.73;;;0.70;99.90;;;;;;4875576;29;20223;-70
2024/01/07 12:14:14;;;;;;;0.50;0.50;;;0.70;99.90;;;;;;4867726;29;20309;-70
2024/01/07 12:16:41;;;;;;;2.00;1.85;;;0.70;99.90;;;;;;4882020;29;20208;-70
2024/01/07 12:19:10;;;;;;;1.15;1.15;;;0.70;99.90;;;;;;4869713;29;20231;-69
2024/01/07 12:21:37;;;;;;;0.80;0.80;;;0.70;99.90;;;;;;4870824;29;20596;-70
2024/01/07 12:24:05;;;;;;;2.35;1.35;;;0.70;99.90;;;;;;4871404;29;20263;-69
2024/01/07 12:26:33;;;;;;;0.50;0.50;;;0.70;99.90;;;;;;4879908;29;20639;-70
2024/01/07 12:29:03;;;;;;;0.10;0.10;;;0.70;99.90;;;;;;4879949;29;20216;-70
2024/01/07 12:31:30;;;;;;;0.30;0.30;;;0.70;99.90;;;;;;4875395;29;20266;-70
2024/01/07 12:33:57;;;;;;;1.15;1.02;;;0.70;99.90;;;;;;4874944;29;20227;-71
2024/01/07 12:36:26;;;;;;;0.50;0.50;;;0.70;99.90;;;;;;4876228;29;20215;-70
2024/01/07 12:38:54;;;;;;;1.00;0.68;;;0.80;99.90;;;;;;4877072;29;20238;-71
2024/01/07 12:41:22;;;;;;;0.40;0.40;;;0.80;99.90;;;;;;4876615;29;20370;-70
2024/01/07 12:43:49;;;;;;;0.30;0.30;;;0.90;99.90;;;;;;4876825;29;20262;-70
2024/01/07 12:46:16;;;;;;;6.18;1.77;;;0.90;99.90;;;;;;4881090;29;20378;-70
2024/01/07 12:48:43;;;;;;;0.68;0.65;;;1.00;99.90;;;;;;4882043;29;20208;-70
2024/01/07 12:51:10;;;;;;;1.33;1.33;;;1.20;99.90;;;;;;4878071;29;20263;-70
2024/01/07 12:53:38;;;;;;;1.13;1.13;;;1.30;99.90;;;;;;4877755;29;20224;-71
2024/01/07 12:56:05;;;;;;;0.93;0.80;;;1.30;99.90;;;;;;4881087;29;20222;-71
2024/01/07 12:58:32;;;;;;;1.60;1.55;;;1.40;99.90;;;;;;4874344;29;20211;-71
2024/01/07 13:00:59;;;;;;;1.20;1.20;;;1.30;99.90;;;;;;4877864;29;20246;-71
2024/01/07 13:03:26;;;;;;;1.20;1.08;;;1.30;99.90;;;;;;4876701;29;20604;-70
2024/01/07 13:05:53;;;;;;;1.33;1.33;;;1.20;99.90;;;;;;4876970;29;20769;-70
2024/01/07 13:08:22;;;;;;;1.00;1.00;;;1.10;99.90;;;;;;4877585;29;20249;-71
2024/01/07 13:10:50;;;;;;;1.15;1.05;;;1.10;99.90;;;;;;4878128;29;20235;-70
2024/01/07 13:13:17;;;;;;;0.70;0.70;;;1.10;99.90;;;;;;4877255;29;20813;-72
2024/01/07 13:15:44;;;;;;;9.77;1.95;;;1.10;99.90;;;;;;4878795;29;20215;-71
2024/01/07 13:18:12;;;;;;;0.65;0.65;;;1.00;99.90;;;;;;4873818;29;20224;-72
2024/01/07 13:20:39;;;;;;;1.75;1.75;;;1.00;99.90;;;;;;4878091;29;20283;-72
2024/01/07 13:23:06;;;;;;;2.10;1.95;;;1.00;99.90;;;;;;4872884;29;20300;-72
2024/01/07 13:25:33;;;;;;;1.25;1.25;;;1.10;99.90;;;;;;4875980;29;20219;-72
2024/01/07 13:28:01;;;;;;;4.47;1.20;;;1.00;99.90;;;;;;4872765;29;20292;-72
2024/01/07 13:30:27;;;;;;;1.60;1.50;;;1.00;99.90;;;;;;4877276;29;20233;-71
2024/01/07 13:32:56;;;;;;;0.68;0.68;;;0.90;99.90;;;;;;4874788;29;20646;-72
2024/01/07 13:35:23;;;;;;;2.00;1.25;;;0.80;99.90;;;;;;4872027;29;20237;-72
2024/01/07 13:37:51;;;;;;;1.38;1.27;;;0.80;99.90;;;;;;4874857;29;20219;-71
2024/01/07 13:40:19;;;;;;;1.30;1.20;;;0.70;99.90;;;;;;4874392;29;20295;-72
2024/01/07 13:42:45;;;;;;;4.25;2.90;;;0.80;99.90;;;;;;4879838;29;20212;-72
2024/01/07 13:45:14;;;;;;;1.23;1.23;;;0.80;99.90;;;;;;4869951;29;20227;-72
2024/01/07 13:47:41;;;;;;;1.33;1.33;;;0.80;99.90;;;;;;4875370;29;20259;-72
2024/01/07 13:50:09;;;;;;;0.47;0.47;;;0.80;99.90;;;;;;4869303;29;20212;-72
2024/01/07 13:52:36;;;;;;;1.38;0.98;;;0.70;99.90;;;;;;4874584;29;20232;-71
2024/01/07 13:55:03;;;;;;;1.23;1.23;;;0.60;99.90;;;;;;4875988;29;20220;-72
2024/01/07 13:57:30;;;;;;;1.33;1.30;;;0.60;99.90;;;;;;4874890;29;20243;-72
2024/01/07 13:59:57;;;;;;;0.80;0.80;;;0.60;99.90;;;;;;4869814;29;20265;-72
2024/01/07 14:02:25;;;;;;;1.83;1.73;;;0.50;99.90;;;;;;4869826;29;20246;-71
2024/01/07 14:04:52;;;;;;;2.28;2.17;;;0.60;99.90;;;;;;4879405;29;20207;-72
2024/01/07 14:07:18;;;;;;;1.70;1.60;;;0.60;99.90;;;;;;4870155;29;20593;-71
2024/01/07 14:09:45;;;;;;;2.22;1.95;;;0.70;99.90;;;;;;4872971;29;20219;-72
2024/01/07 14:12:12;;;;;;;1.70;1.58;;;0.60;99.90;;;;;;4872711;29;20331;-71
2024/01/07 14:14:39;;;;;;;1.25;1.23;;;0.50;99.90;;;;;;4866228;29;20506;-72
2024/01/07 14:17:06;;;;;;;1.92;0.88;;;0.50;99.90;;;;;;4864499;29;20855;-71
2024/01/07 14:19:34;;;;;;;0.75;0.75;;;0.40;99.90;;;;;;4865039;29;20208;-71
2024/01/07 14:22:01;;;;;;;0.98;0.98;;;0.20;99.90;;;;;;4871354;29;20238;-71
2024/01/07 14:24:28;;;;;;;1.63;1.63;;;0.10;99.90;;;;;;4864762;29;20216;-70
2024/01/07 14:26:55;;;;;;;1.30;1.20;;;0.10;99.90;;;;;;4873873;29;20214;-70
2024/01/07 14:29:21;;;;;;;1.23;1.23;;;0.00;99.90;;;;;;4869683;29;20282;-70
2024/01/07 14:31:49;;;;;;;3.00;1.15;;;0.00;99.90;;;;;;4868686;29;20240;-70
2024/01/07 14:34:16;;;;;;;5.15;1.45;;;-0.10;99.90;;;;;;4869468;29;20222;-71
2024/01/07 14:36:44;;;;;;;1.67;1.58;;;-0.10;99.90;;;;;;4876943;29;20212;-71
2024/01/07 14:39:13;;;;;;;0.80;0.80;;;-0.20;99.90;;;;;;4871264;29;20299;-70
2024/01/07 14:41:40;;;;;;;1.10;1.10;;;-0.20;99.90;;;;;;4872655;29;20315;-71
2024/01/07 14:44:07;;;;;;;0.40;0.40;;;-0.30;99.90;;;;;;4868052;29;20227;-70
2024/01/07 14:46:33;;;;;;;0.75;0.73;;;-0.30;99.90;;;;;;4866932;29;20212;-71
2024/01/07 14:49:00;;;;;;;2.35;1.80;;;-0.40;99.90;;;;;;4866853;29;20273;-71
2024/01/07 14:51:28;;;;;;;1.77;1.73;;;-0.50;99.90;;;;;;4875157;29;20243;-70
2024/01/07 14:53:56;;;;;;;2.05;1.83;;;-0.50;99.90;;;;;;4871497;29;20562;-71
2024/01/07 14:56:23;;;;;;;2.38;2.28;;;-0.50;99.90;;;;;;4866702;29;20252;-70
2024/01/07 14:58:50;;;;;;;1.38;0.85;;;-0.50;99.90;;;;;;4867059;29;20215;-70
2024/01/07 15:01:18;;;;;;;1.77;1.75;;;-0.50;99.90;;;;;;4873270;29;20243;-70
2024/01/07 15:03:45;;;;;;;2.65;1.23;;;-0.50;99.90;;;;;;4871608;29;20295;-70
2024/01/07 15:06:14;;;;;;;1.63;1.52;;;-0.50;99.90;;;;;;4869904;29;20216;-71
2024/01/07 15:08:42;;;;;;;1.30;1.30;;;-0.50;99.90;;;;;;4866417;29;20241;-70
2024/01/07 15:11:10;;;;;;;2.30;2.20;;;-0.50;99.90;;;;;;4862571;29;20658;-71
2024/01/07 15:13:39;;;;;;;3.90;3.70;;;-0.50;99.90;;;;;;4865609;29;20211;-71
2024/01/07 15:16:06;;;;;;;1.20;1.20;;;-0.50;99.90;;;;;;4863656;29;20216;-71
2024/01/07 15:18:33;;;;;;;1.83;1.73;;;-0.50;99.90;;;;;;4872919;29;20299;-71
2024/01/07 15:21:00;;;;;;;1.88;1.77;;;-0.60;99.90;;;;;;4872707;29;20227;-70
2024/01/07 15:23:27;;;;;;;2.58;1.90;;;-0.50;99.90;;;;;;4869577;29;20216;-71
2024/01/07 15:25:53;;;;;;;2.10;1.90;;;-0.60;99.90;;;;;;4873403;29;20302;-70
2024/01/07 15:28:21;;;;;;;1.40;1.40;;;-0.60;99.90;;;;;;4870215;29;20668;-71
2024/01/07 15:30:47;;;;;;;2.72;1.58;;;-0.60;99.90;;;;;;4864777;29;20235;-71
2024/01/07 15:33:14;;;;;;;2.53;0.85;;;-0.70;99.90;;;;;;4866908;29;20289;-72
2024/01/07 15:35:41;;;;;;;1.60;1.50;;;-0.70;99.90;;;;;;4875875;29;20216;-71
2024/01/07 15:38:08;;;;;;;4.90;2.03;;;-0.80;99.90;;;;;;4873338;29;20220;-71
2024/01/07 15:40:35;;;;;;;1.30;1.30;;;-0.80;99.90;;;;;;4872648;29;20255;-71
2024/01/07 15:43:01;;;;;;;1.30;1.20;;;-0.80;99.90;;;;;;4871364;29;20215;-70
2024/01/07 15:45:29;;;;;;;1.45;1.20;;;-0.80;99.90;;;;;;4865321;29;20287;-70
2024/01/07 15:47:56;;;;;;;1.17;1.13;;;-0.90;99.90;;;;;;4866769;29;20710;-70
2024/01/07 15:50:23;;;;;;;1.80;1.67;;;-0.90;99.90;;;;;;4866545;29;20347;-70
2024/01/07 15:52:49;;;;;;;2.95;2.00;;;-0.90;99.90;;;;;;4865261;29;20696;-70
2024/01/07 15:55:18;;;;;;;2.72;2.53;;;-1.00;99.90;;;;;;4868772;29;20219;-70
2024/01/07 15:57:45;;;;;;;1.40;1.40;;;-1.00;99.90;;;;;;4869475;29;20585;-70
2024/01/07 16:00:13;;;;;;;4.03;1.48;;;-1.00;99.90;;;;;;4876203;29;20600;-70
2024/01/07 16:02:41;;;;;;;2.58;2.47;;;-1.00;99.90;;;;;;4872835;29;20247;-69
2024/01/07 16:05:08;;;;;;;3.30;2.08;;;-1.00;99.90;;;;;;4873237;29;20298;-70
2024/01/07 16:07:35;;;;;;;1.83;1.73;;;-1.00;99.90;;;;;;4868891;29;20231;-69
2024/01/07 16:10:01;;;;;;;2.75;1.63;;;-1.00;99.90;;;;;;4873546;29;20698;-69
2024/01/07 16:12:30;;;;;;;1.55;1.55;;;-1.10;99.90;;;;;;4871747;29;20327;-69
2024/01/07 16:14:57;;;;;;;1.10;1.05;;;-1.10;99.90;;;;;;4878645;29;20220;-69
2024/01/07 16:17:23;;;;;;;2.75;2.60;;;-1.10;99.90;;;;;;4876302;29;20219;-69
2024/01/07 16:19:51;;;;;;;1.00;1.00;;;-1.10;99.90;;;;;;4874210;29;20218;-69
2024/01/07 16:22:19;;;;;;;0.82;0.82;;;-1.10;99.90;;;;;;4871459;29;20292;-69
2024/01/07 16:24:45;;;;;;;3.97;3.47;;;-1.10;99.90;;;;;;4872705;29;20240;-69
2024/01/07 16:27:13;;;;;;;1.52;1.52;;;-1.10;99.90;;;;;;4873906;29;20217;-69
2024/01/07 16:29:39;;;;;;;6.63;3.80;;;-1.10;99.90;;;;;;4876450;29;20256;-69
2024/01/07 16:32:06;;;;;;;1.53;1.43;;;-1.20;99.90;;;;;;4872256;29;20649;-70
2024/01/07 16:34:33;;;;;;;2.65;2.45;;;-1.20;99.90;;;;;;4870449;29;20480;-70
2024/01/07 16:37:01;;;;;;;3.05;2.85;;;-1.20;99.90;;;;;;4876100;29;20226;-70
2024/01/07 16:39:28;;;;;;;1.85;1.70;;;-1.10;99.90;;;;;;4876521;29;20216;-70
2024/01/07 16:41:56;;;;;;;1.98;1.88;;;-1.10;99.90;;;;;;4870754;29;20227;-69
2024/01/07 16:44:23;;;;;;;3.63;2.50;;;-1.10;99.90;;;;;;4876077;29;20219;-69
2024/01/07 16:46:50;;;;;;;2.08;1.88;;;-1.00;99.90;;;;;;4868524;29;20629;-69
2024/01/07 16:49:16;;;;;;;3.22;2.75;;;-1.10;99.90;;;;;;4868334;29;20282;-69
2024/01/07 16:51:43;;;;;;;2.33;1.88;;;-1.10;99.90;;;;;;4870289;29;20243;-68
2024/01/07 16:54:11;;;;;;;1.23;1.23;;;-1.10;99.90;;;;;;4865698;29;20323;-69
2024/01/07 16:56:38;;;;;;;2.17;1.73;;;-1.10;99.90;;;;;;4865086;29;20212;-69
2024/01/07 16:59:04;;;;;;;6.10;3.53;;;-1.10;99.90;;;;;;4871954;29;20230;-68
2024/01/07 17:01:31;;;;;;;0.70;0.70;;;-1.10;99.90;;;;;;4872237;29;20251;-68
2024/01/07 17:03:58;;;;;;;0.95;0.95;;;-1.10;99.90;;;;;;4872252;29;20223;-69
2024/01/07 17:06:25;;;;;;;0.60;0.60;;;-1.10;99.90;;;;;;4868217;29;20220;-69
2024/01/07 17:08:52;;;;;;;1.27;1.20;;;-1.20;99.90;;;;;;4869188;29;20620;-69
2024/01/07 17:11:22;;;;;;;1.10;1.10;;;-1.20;99.90;;;;;;4868404;29;20252;-69
2024/01/07 17:13:49;;;;;;;1.38;1.27;;;-1.20;99.90;;;;;;4869335;29;20250;-68
2024/01/07 17:16:15;;;;;;;2.88;1.60;;;-1.20;99.90;;;;;;4872706;29;20235;-69
2024/01/07 17:18:42;;;;;;;2.30;1.60;;;-1.20;99.90;;;;;;4870843;29;20656;-69
2024/01/07 17:21:09;;;;;;;1.25;1.25;;;-1.20;99.90;;;;;;4866012;29;20323;-68
2024/01/07 17:23:36;;;;;;;4.43;2.58;;;-1.20;99.90;;;;;;4872618;29;20227;-69
2024/01/07 17:26:02;;;;;;;1.77;1.63;;;-1.20;99.90;;;;;;4874508;29;20645;-68
2024/01/07 17:28:31;;;;;;;1.40;1.33;;;-1.10;99.90;;;;;;4868028;29;20213;-68
2024/01/07 17:30:57;;;;;;;2.13;2.03;;;-1.20;99.90;;;;;;4869280;29;20240;-67
2024/01/07 17:33:24;;;;;;;1.73;1.73;;;-1.20;99.90;;;;;;4870789;29;20209;-68
2024/01/07 17:35:51;;;;;;;3.55;2.63;;;-1.20;99.90;;;;;;4869961;29;20268;-68
2024/01/07 17:38:20;;;;;;;2.75;1.67;;;-1.10;99.90;;;;;;4873043;29;20675;-69
2024/01/07 17:40:47;;;;;;;4.05;1.95;;;-1.10;99.90;;;;;;4866605;29;20672;-68
2024/01/07 17:43:13;;;;;;;1.85;1.60;;;-1.10;99.90;;;;;;4867827;29;20673;-67
2024/01/07 17:45:43;;;;;;;2.60;2.25;;;-1.10;99.90;;;;;;4867357;29;20224;-70
2024/01/07 17:48:09;;;;;;;2.22;2.08;;;-1.20;99.90;;;;;;4864535;29;20212;-68
2024/01/07 17:50:36;;;;;;;2.85;1.98;;;-1.20;99.90;;;;;;4866982;29;20228;-67